createdAt,value
2018-06-03T00:01:04.577Z,18.10
2018-06-03T00:03:32.811Z,18.10
2018-06-03T00:06:01.089Z,18.10
2018-06-03T00:08:29.406Z,18.10
2018-06-03T00:10:57.752Z,18.10
2018-06-03T00:13:25.980Z,18.00
2018-06-03T00:15:54.210Z,18.00
2018-06-03T00:18:22.419Z,17.90
2018-06-03T00:21:02.809Z,17.90
2018-06-03T00:23:31.050Z,17.80
2018-06-03T00:25:59.292Z,17.80
2018-06-03T00:28:27.589Z,17.70
2018-06-03T00:30:55.834Z,17.80
2018-06-03T00:33:24.040Z,17.80
2018-06-03T00:36:03.631Z,17.80
2018-06-03T00:38:31.827Z,17.80
2018-06-03T00:41:00.025Z,17.80
2018-06-03T00:43:28.318Z,17.90
2018-06-03T00:45:56.489Z,17.80
2018-06-03T00:48:24.874Z,17.80
2018-06-03T00:50:53.105Z,17.80
2018-06-03T00:53:21.349Z,17.90
2018-06-03T00:55:49.612Z,17.90
2018-06-03T00:58:17.860Z,18.00
2018-06-03T01:00:46.152Z,18.00
2018-06-03T01:03:14.432Z,18.00
2018-06-03T01:05:42.668Z,18.10
2018-06-03T01:08:11.000Z,18.10
2018-06-03T01:10:39.210Z,18.10
2018-06-03T01:13:07.464Z,18.10
2018-06-03T01:15:35.848Z,18.10
2018-06-03T01:18:04.110Z,18.10
2018-06-03T01:20:32.314Z,18.00
2018-06-03T01:23:00.628Z,18.00
2018-06-03T01:25:29.119Z,18.00
2018-06-03T01:27:57.370Z,18.00
2018-06-03T01:30:25.806Z,18.00
2018-06-03T01:32:55.076Z,18.00
2018-06-03T01:35:23.320Z,18.00
2018-06-03T01:37:51.517Z,17.90
2018-06-03T01:40:19.772Z,17.90
2018-06-03T01:42:48.877Z,17.90
2018-06-03T01:45:17.253Z,17.90
2018-06-03T01:47:45.541Z,17.90
2018-06-03T01:50:14.008Z,17.90
2018-06-03T01:52:42.446Z,18.00
2018-06-03T01:55:10.690Z,18.00
2018-06-03T01:57:38.904Z,17.90
2018-06-03T02:00:07.285Z,17.90
2018-06-03T02:02:35.521Z,18.00
2018-06-03T02:05:03.741Z,18.00
2018-06-03T02:07:32.277Z,18.00
2018-06-03T02:10:00.539Z,18.00
2018-06-03T02:12:28.761Z,18.00
2018-06-03T02:14:56.968Z,18.00
2018-06-03T02:17:25.128Z,18.00
2018-06-03T02:19:53.459Z,18.00
2018-06-03T02:22:21.879Z,17.90
2018-06-03T02:24:50.178Z,17.90
2018-06-03T02:27:18.419Z,17.90
2018-06-03T02:29:46.746Z,17.90
2018-06-03T02:32:15.022Z,17.90
2018-06-03T02:34:43.182Z,17.90
2018-06-03T02:37:11.675Z,18.00
2018-06-03T02:39:40.018Z,17.90
2018-06-03T02:42:08.293Z,17.90
2018-06-03T02:44:36.482Z,17.90
2018-06-03T02:47:04.880Z,18.00
2018-06-03T02:49:33.362Z,18.00
2018-06-03T02:52:01.677Z,18.00
2018-06-03T02:54:30.090Z,18.00
2018-06-03T02:56:58.285Z,18.10
2018-06-03T02:59:26.615Z,18.10
2018-06-03T03:01:54.916Z,18.10
2018-06-03T03:04:23.204Z,18.10
2018-06-03T03:06:51.467Z,18.20
2018-06-03T03:09:19.790Z,18.20
2018-06-03T03:11:48.221Z,18.20
2018-06-03T03:14:16.453Z,18.20
2018-06-03T03:16:44.721Z,18.20
2018-06-03T03:19:12.953Z,18.20
2018-06-03T03:21:41.205Z,18.20
2018-06-03T03:24:09.839Z,18.20
2018-06-03T03:26:38.024Z,18.20
2018-06-03T03:29:06.279Z,18.20
2018-06-03T03:31:34.468Z,18.20
2018-06-03T03:34:02.738Z,18.20
2018-06-03T03:36:31.140Z,18.20
2018-06-03T03:38:59.387Z,18.10
2018-06-03T03:41:27.671Z,18.10
2018-06-03T03:43:55.872Z,18.10
2018-06-03T03:46:24.476Z,18.10
2018-06-03T03:48:52.903Z,18.10
2018-06-03T03:51:21.201Z,18.10
2018-06-03T03:53:49.471Z,18.10
2018-06-03T03:56:17.685Z,18.10
2018-06-03T03:58:46.589Z,18.20
2018-06-03T04:01:14.942Z,18.20
2018-06-03T04:03:43.291Z,18.20
2018-06-03T04:06:12.207Z,18.20
2018-06-03T04:08:40.510Z,18.20
2018-06-03T04:11:08.928Z,18.30
2018-06-03T04:13:37.261Z,18.30
2018-06-03T04:16:05.481Z,18.40
2018-06-03T04:18:33.724Z,18.40
2018-06-03T04:21:01.931Z,18.40
2018-06-03T04:23:30.414Z,18.30
2018-06-03T04:25:58.693Z,18.40
2018-06-03T04:28:27.383Z,18.40
2018-06-03T04:30:55.708Z,18.40
2018-06-03T04:33:24.013Z,18.40
2018-06-03T04:35:53.058Z,18.40
2018-06-03T04:38:21.283Z,18.40
2018-06-03T04:40:50.647Z,18.40
2018-06-03T04:43:18.952Z,18.30
2018-06-03T04:45:47.131Z,18.30
2018-06-03T04:48:15.656Z,18.30
2018-06-03T04:50:43.969Z,18.20
2018-06-03T04:53:12.213Z,18.20
2018-06-03T04:55:40.471Z,18.20
2018-06-03T04:58:08.762Z,18.30
2018-06-03T05:00:37.008Z,18.30
2018-06-03T05:03:05.282Z,18.30
2018-06-03T05:05:33.623Z,18.30
2018-06-03T05:08:01.802Z,18.30
2018-06-03T05:10:31.138Z,18.30
2018-06-03T05:12:59.408Z,18.30
2018-06-03T05:15:27.685Z,18.40
2018-06-03T05:17:56.084Z,18.40
2018-06-03T05:20:24.391Z,18.50
2018-06-03T05:22:52.585Z,18.60
2018-06-03T05:25:20.777Z,18.70
2018-06-03T05:27:49.061Z,18.70
2018-06-03T05:30:17.379Z,18.70
2018-06-03T05:32:45.739Z,18.70
2018-06-03T05:35:13.903Z,18.80
2018-06-03T05:37:42.169Z,18.90
2018-06-03T05:40:10.795Z,18.90
2018-06-03T05:42:39.100Z,19.00
2018-06-03T05:45:07.457Z,18.90
2018-06-03T05:47:35.629Z,19.00
2018-06-03T05:50:04.069Z,19.00
2018-06-03T05:52:32.389Z,18.90
2018-06-03T05:55:00.893Z,18.90
2018-06-03T05:57:29.140Z,19.00
2018-06-03T05:59:57.688Z,19.10
2018-06-03T06:02:25.947Z,19.10
2018-06-03T06:04:57.381Z,19.30
2018-06-03T06:07:26.066Z,19.30
2018-06-03T06:09:55.352Z,19.30
2018-06-03T06:12:23.931Z,19.30
2018-06-03T06:14:52.292Z,19.30
2018-06-03T06:17:21.689Z,19.10
2018-06-03T06:19:51.449Z,19.20
2018-06-03T06:22:19.887Z,19.20
2018-06-03T06:24:48.366Z,19.30
2018-06-03T06:27:17.265Z,19.30
2018-06-03T06:29:45.832Z,19.40
2018-06-03T06:32:14.596Z,19.40
2018-06-03T06:34:44.317Z,19.40
2018-06-03T06:37:12.949Z,19.60
2018-06-03T06:39:42.481Z,19.80
2018-06-03T06:42:13.174Z,19.80
2018-06-03T06:44:41.801Z,19.90
2018-06-03T06:47:10.172Z,19.90
2018-06-03T06:49:38.929Z,19.90
2018-06-03T06:52:07.468Z,20.00
2018-06-03T06:54:35.926Z,20.10
2018-06-03T06:57:04.863Z,20.20
2018-06-03T06:59:33.832Z,20.30
2018-06-03T07:02:02.631Z,20.30
2018-06-03T07:04:30.883Z,20.40
2018-06-03T07:06:59.249Z,20.40
2018-06-03T07:09:27.985Z,20.40
2018-06-03T07:11:56.153Z,20.40
2018-06-03T07:14:24.477Z,20.50
2018-06-03T07:16:52.725Z,20.60
2018-06-03T07:19:21.319Z,20.70
2018-06-03T07:21:49.925Z,20.80
2018-06-03T07:24:18.583Z,20.90
2018-06-03T07:26:49.466Z,20.80
2018-06-03T07:29:17.798Z,20.90
2018-06-03T07:31:46.147Z,20.90
2018-06-03T07:34:14.548Z,20.90
2018-06-03T07:36:43.007Z,21.00
2018-06-03T07:39:11.690Z,21.10
2018-06-03T07:41:39.945Z,21.00
2018-06-03T07:44:08.427Z,21.00
2018-06-03T07:46:36.711Z,21.00
2018-06-03T07:49:05.120Z,21.00
2018-06-03T07:51:33.437Z,21.00
2018-06-03T07:54:01.772Z,21.10
2018-06-03T07:56:30.049Z,21.20
2018-06-03T07:58:58.423Z,21.20
2018-06-03T08:01:27.545Z,21.30
2018-06-03T08:03:55.966Z,21.50
2018-06-03T08:06:24.390Z,21.50
2018-06-03T08:08:52.712Z,21.70
2018-06-03T08:11:21.104Z,21.90
2018-06-03T08:13:49.388Z,22.00
2018-06-03T08:16:20.110Z,21.90
2018-06-03T08:18:48.556Z,22.00
2018-06-03T08:21:16.973Z,21.90
2018-06-03T08:23:45.266Z,22.00
2018-06-03T08:26:13.581Z,22.00
2018-06-03T08:28:42.114Z,21.90
2018-06-03T08:31:11.762Z,21.80
2018-06-03T08:33:40.110Z,21.80
2018-06-03T08:36:09.004Z,21.80
2018-06-03T08:38:37.484Z,21.80
2018-06-03T08:41:05.989Z,21.80
2018-06-03T08:43:34.257Z,21.90
2018-06-03T08:46:02.859Z,21.90
2018-06-03T08:48:31.334Z,21.90
2018-06-03T08:51:00.687Z,22.00
2018-06-03T08:53:31.395Z,22.10
2018-06-03T08:56:00.079Z,22.20
2018-06-03T08:58:29.636Z,22.20
2018-06-03T09:00:57.986Z,22.30
2018-06-03T09:03:26.174Z,22.30
2018-06-03T09:05:54.943Z,22.30
2018-06-03T09:08:23.295Z,22.20
2018-06-03T09:10:51.642Z,22.20
2018-06-03T09:13:19.983Z,22.30
2018-06-03T09:15:48.433Z,22.20
2018-06-03T09:18:17.760Z,22.30
2018-06-03T09:20:46.157Z,22.40
2018-06-03T09:23:15.169Z,22.50
2018-06-03T09:25:43.593Z,22.60
2018-06-03T09:28:12.265Z,22.70
2018-06-03T09:30:40.979Z,22.70
2018-06-03T09:33:09.335Z,22.60
2018-06-03T09:35:37.853Z,22.60
2018-06-03T09:38:06.187Z,22.70
2018-06-03T09:40:34.707Z,22.90
2018-06-03T09:43:02.955Z,23.10
2018-06-03T09:45:31.280Z,23.10
2018-06-03T09:48:00.114Z,23.10
2018-06-03T09:50:29.060Z,23.10
2018-06-03T09:52:57.400Z,23.10
2018-06-03T09:55:26.028Z,23.10
2018-06-03T09:57:54.341Z,23.20
2018-06-03T10:00:32.890Z,23.30
2018-06-03T10:03:02.277Z,23.30
2018-06-03T10:05:30.580Z,23.30
2018-06-03T10:07:58.813Z,23.50
2018-06-03T10:10:27.196Z,23.70
2018-06-03T10:12:56.827Z,23.80
2018-06-03T10:15:25.862Z,23.80
2018-06-03T10:17:54.221Z,23.80
2018-06-03T10:20:22.652Z,23.70
2018-06-03T10:22:51.183Z,23.80
2018-06-03T10:25:19.410Z,23.90
2018-06-03T10:27:47.707Z,23.90
2018-06-03T10:30:16.323Z,23.80
2018-06-03T10:32:44.673Z,23.70
2018-06-03T10:35:14.054Z,23.80
2018-06-03T10:37:43.168Z,23.90
2018-06-03T10:40:11.498Z,24.00
2018-06-03T10:42:39.876Z,23.80
2018-06-03T10:45:08.236Z,23.70
2018-06-03T10:47:38.209Z,23.60
2018-06-03T10:50:06.700Z,23.60
2018-06-03T10:52:35.071Z,23.50
2018-06-03T10:55:03.705Z,23.30
2018-06-03T10:57:32.165Z,23.20
2018-06-03T11:00:00.514Z,23.20
2018-06-03T11:02:28.880Z,23.30
2018-06-03T11:04:57.815Z,23.20
2018-06-03T11:07:26.345Z,23.00
2018-06-03T11:09:59.752Z,22.90
2018-06-03T11:12:28.344Z,23.00
2018-06-03T11:14:56.987Z,23.10
2018-06-03T11:17:25.679Z,23.10
2018-06-03T11:19:54.094Z,22.90
2018-06-03T11:22:22.664Z,22.80
2018-06-03T11:24:55.554Z,22.90
2018-06-03T11:27:23.792Z,23.00
2018-06-03T11:29:52.113Z,22.90
2018-06-03T11:32:20.569Z,22.90
2018-06-03T11:34:49.171Z,22.90
2018-06-03T11:37:17.770Z,22.90
2018-06-03T11:39:49.709Z,23.00
2018-06-03T11:42:18.569Z,23.00
2018-06-03T11:44:46.816Z,23.10
2018-06-03T11:47:15.135Z,23.40
2018-06-03T11:49:43.484Z,23.70
2018-06-03T11:52:12.789Z,24.00
2018-06-03T11:54:41.229Z,23.90
2018-06-03T11:57:09.566Z,23.80
2018-06-03T11:59:43.001Z,23.70
2018-06-03T12:02:12.217Z,23.40
2018-06-03T12:04:40.478Z,23.20
2018-06-03T12:07:08.720Z,23.10
2018-06-03T12:09:37.285Z,23.00
2018-06-03T12:12:05.584Z,22.80
2018-06-03T12:14:33.929Z,22.50
2018-06-03T12:17:02.125Z,22.40
2018-06-03T12:19:30.621Z,22.30
2018-06-03T12:21:59.197Z,22.40
2018-06-03T12:24:27.400Z,22.30
2018-06-03T12:26:55.678Z,22.40
2018-06-03T12:29:23.856Z,22.40
2018-06-03T12:31:52.097Z,22.40
2018-06-03T12:34:20.609Z,22.50
2018-06-03T12:36:48.878Z,22.50
2018-06-03T12:39:17.152Z,22.60
2018-06-03T12:41:45.393Z,22.60
2018-06-03T12:44:13.580Z,22.70
2018-06-03T12:46:41.953Z,22.90
2018-06-03T12:49:10.340Z,23.10
2018-06-03T12:51:38.693Z,23.30
2018-06-03T12:54:09.566Z,23.50
2018-06-03T12:56:38.022Z,23.60
2018-06-03T12:59:07.192Z,23.70
2018-06-03T13:01:36.572Z,23.80
2018-06-03T13:04:06.188Z,23.90
2018-06-03T13:06:37.424Z,24.00
2018-06-03T13:09:07.076Z,24.00
2018-06-03T13:11:35.700Z,24.20
2018-06-03T13:14:05.131Z,24.20
2018-06-03T13:16:35.197Z,24.20
2018-06-03T13:19:05.652Z,24.10
2018-06-03T13:21:34.893Z,24.10
2018-06-03T13:24:03.963Z,24.00
2018-06-03T13:26:33.159Z,24.00
2018-06-03T13:29:02.476Z,24.00
2018-06-03T13:31:31.802Z,24.10
2018-06-03T13:34:01.437Z,24.30
2018-06-03T13:36:29.992Z,24.50
2018-06-03T13:38:58.406Z,24.40
2018-06-03T13:41:26.735Z,24.30
2018-06-03T13:43:55.297Z,24.30
2018-06-03T13:46:23.875Z,24.50
2018-06-03T13:48:53.200Z,24.40
2018-06-03T13:51:22.698Z,24.40
2018-06-03T13:53:51.845Z,24.30
2018-06-03T13:56:21.387Z,24.30
2018-06-03T13:58:50.097Z,24.40
2018-06-03T14:01:18.575Z,24.40
2018-06-03T14:03:46.886Z,24.40
2018-06-03T14:06:15.344Z,24.40
2018-06-03T14:08:43.837Z,24.40
2018-06-03T14:11:12.324Z,24.40
2018-06-03T14:13:40.857Z,24.50
2018-06-03T14:16:10.729Z,24.60
2018-06-03T14:18:39.156Z,24.70
2018-06-03T14:21:07.794Z,24.80
2018-06-03T14:23:36.054Z,24.80
2018-06-03T14:26:04.381Z,24.80
2018-06-03T14:28:33.924Z,25.00
2018-06-03T14:31:02.229Z,25.10
2018-06-03T14:33:30.593Z,25.20
2018-06-03T14:35:59.641Z,25.20
2018-06-03T14:38:28.154Z,24.70
2018-06-03T14:40:56.436Z,24.50
2018-06-03T14:43:24.725Z,24.50
2018-06-03T14:45:53.118Z,24.40
2018-06-03T14:48:21.600Z,24.30
2018-06-03T14:50:50.623Z,24.10
2018-06-03T14:53:20.864Z,24.10
2018-06-03T14:55:51.549Z,24.20
2018-06-03T14:58:20.076Z,24.30
2018-06-03T15:00:48.330Z,24.30
2018-06-03T15:03:16.879Z,24.30
2018-06-03T15:05:45.689Z,24.30
2018-06-03T15:08:14.960Z,24.20
2018-06-03T15:10:43.340Z,24.20
2018-06-03T15:16:01.213Z,24.20
2018-06-03T15:18:29.997Z,24.20
2018-06-03T15:20:58.840Z,24.10
2018-06-03T15:23:33.435Z,24.10
2018-06-03T15:31:05.303Z,23.80
2018-06-03T15:33:34.694Z,23.70
2018-06-03T15:36:04.661Z,23.50
2018-06-03T15:38:33.392Z,23.40
2018-06-03T15:41:02.247Z,23.40
2018-06-03T15:43:31.145Z,23.40
2018-06-03T15:46:00.559Z,23.40
2018-06-03T15:48:29.884Z,23.40
2018-06-03T15:50:59.265Z,23.40
2018-06-03T15:53:28.047Z,23.40
2018-06-03T15:55:58.113Z,23.30
2018-06-03T15:58:28.145Z,23.30
2018-06-03T16:00:58.366Z,23.20
2018-06-03T16:03:30.166Z,23.10
2018-06-03T16:05:59.111Z,23.10
2018-06-03T16:08:28.851Z,23.10
2018-06-03T16:10:57.873Z,23.10
2018-06-03T16:13:27.613Z,23.00
2018-06-03T16:15:56.276Z,22.80
2018-06-03T16:18:25.259Z,22.80
2018-06-03T16:20:53.991Z,22.80
2018-06-03T16:23:22.329Z,22.90
2018-06-03T16:25:50.841Z,22.90
2018-06-03T16:28:19.658Z,22.80
2018-06-03T16:30:48.090Z,22.70
2018-06-03T16:33:16.524Z,22.70
2018-06-03T16:35:45.032Z,22.80
2018-06-03T16:38:13.572Z,23.00
2018-06-03T16:40:42.148Z,23.10
2018-06-03T16:43:10.735Z,23.20
2018-06-03T16:45:39.133Z,23.10
2018-06-03T16:48:07.682Z,23.00
2018-06-03T16:50:36.135Z,22.90
2018-06-03T16:53:04.640Z,22.70
2018-06-03T16:55:33.590Z,22.60
2018-06-03T16:58:01.939Z,22.60
2018-06-03T17:00:30.766Z,22.60
2018-06-03T17:02:59.423Z,22.50
2018-06-03T17:05:28.133Z,22.50
2018-06-03T17:07:56.985Z,22.50
2018-06-03T17:10:25.345Z,22.50
2018-06-03T17:12:53.552Z,22.40
2018-06-03T17:15:21.953Z,22.30
2018-06-03T17:17:50.736Z,22.30
2018-06-03T17:20:19.217Z,22.30
2018-06-03T17:22:47.604Z,22.40
2018-06-03T17:29:00.320Z,22.30
2018-06-03T17:31:30.003Z,22.20
2018-06-03T17:34:06.722Z,22.10
2018-06-03T17:36:59.633Z,22.10
2018-06-03T17:43:06.561Z,22.10
2018-06-03T17:45:51.469Z,22.20
2018-06-03T17:48:19.972Z,22.20
2018-06-03T17:50:51.348Z,22.20
2018-06-03T17:53:20.406Z,22.20
2018-06-03T17:55:48.943Z,22.10
2018-06-03T17:58:18.029Z,22.10
2018-06-03T18:00:47.069Z,22.00
2018-06-03T18:03:16.764Z,21.90
2018-06-03T18:05:45.356Z,21.90
2018-06-03T18:08:13.936Z,21.80
2018-06-03T18:10:42.299Z,21.80
2018-06-03T18:13:10.651Z,21.70
2018-06-03T18:15:39.359Z,21.60
2018-06-03T18:18:07.563Z,21.50
2018-06-03T18:20:36.789Z,21.50
2018-06-03T18:23:12.774Z,21.50
2018-06-03T18:25:41.040Z,21.40
2018-06-03T18:28:09.256Z,21.40
2018-06-03T18:30:38.030Z,21.30
2018-06-03T18:33:06.621Z,21.30
2018-06-03T18:35:35.799Z,21.20
2018-06-03T18:38:04.899Z,21.10
2018-06-03T18:40:33.326Z,21.10
2018-06-03T18:43:01.633Z,21.10
2018-06-03T18:45:29.837Z,21.00
2018-06-03T18:47:58.458Z,20.90
2018-06-03T18:50:28.876Z,20.90
2018-06-03T18:52:57.387Z,20.80
2018-06-03T18:55:26.074Z,20.80
2018-06-03T18:57:55.029Z,20.70
2018-06-03T19:00:25.414Z,20.70
2018-06-03T19:02:53.996Z,20.70
2018-06-03T19:05:22.248Z,20.60
2018-06-03T19:07:51.043Z,20.60
2018-06-03T19:10:19.555Z,20.50
2018-06-03T19:12:48.430Z,20.50
2018-06-03T19:15:18.744Z,20.50
2018-06-03T19:17:48.853Z,20.40
2018-06-03T19:20:17.235Z,20.30
2018-06-03T19:22:45.515Z,20.30
2018-06-03T19:25:14.656Z,20.20
2018-06-03T19:27:42.889Z,20.00
2018-06-03T19:30:11.611Z,20.00
2018-06-03T19:32:39.978Z,20.00
2018-06-03T19:35:08.339Z,20.00
2018-06-03T19:37:36.849Z,19.90
2018-06-03T19:40:05.421Z,19.80
2018-06-03T19:42:33.603Z,19.80
2018-06-03T19:45:02.213Z,19.80
2018-06-03T19:47:30.723Z,19.70
2018-06-03T19:49:59.231Z,19.60
2018-06-03T19:52:27.466Z,19.60
2018-06-03T19:54:56.571Z,19.50
2018-06-03T19:57:26.828Z,19.50
2018-06-03T19:59:57.477Z,19.50
2018-06-03T20:02:26.057Z,19.40
2018-06-03T20:04:54.270Z,19.40
2018-06-03T20:07:23.521Z,19.30
2018-06-03T20:09:52.838Z,19.30
2018-06-03T20:12:22.799Z,19.30
2018-06-03T20:14:52.226Z,19.20
2018-06-03T20:17:24.174Z,19.20
2018-06-03T20:19:53.153Z,19.10
2018-06-03T20:22:22.317Z,19.00
2018-06-03T20:24:50.764Z,18.90
2018-06-03T20:29:59.342Z,18.80
2018-06-03T20:32:27.489Z,18.80
2018-06-03T20:34:56.209Z,18.70
2018-06-03T20:37:24.616Z,18.70
2018-06-03T20:39:54.841Z,18.70
2018-06-03T20:42:23.214Z,18.60
2018-06-03T20:44:51.838Z,18.60
2018-06-03T20:47:20.549Z,18.60
2018-06-03T20:49:48.756Z,18.60
2018-06-03T20:52:17.032Z,18.60
2018-06-03T20:54:45.211Z,18.60
2018-06-03T20:57:13.541Z,18.60
2018-06-03T20:59:41.716Z,18.50
2018-06-03T21:02:10.431Z,18.50
2018-06-03T21:04:38.646Z,18.50
2018-06-03T21:07:07.089Z,18.40
2018-06-03T21:09:35.324Z,18.40
2018-06-03T21:12:03.628Z,18.30
2018-06-03T21:14:32.077Z,18.40
2018-06-03T21:17:00.372Z,18.30
2018-06-03T21:19:28.816Z,18.30
2018-06-03T21:21:57.238Z,18.30
2018-06-03T21:24:25.521Z,18.30
2018-06-03T21:26:53.757Z,18.20
2018-06-03T21:29:24.528Z,18.20
2018-06-03T21:31:53.037Z,18.20
2018-06-03T21:34:21.408Z,18.20
2018-06-03T21:36:49.661Z,18.10
2018-06-03T21:39:17.934Z,18.00
2018-06-03T21:41:46.180Z,18.00
2018-06-03T21:44:15.717Z,18.00
2018-06-03T21:46:43.962Z,17.90
2018-06-03T21:49:12.542Z,17.80
2018-06-03T21:51:41.122Z,17.80
2018-06-03T21:54:09.574Z,17.80
2018-06-03T21:56:38.044Z,17.70
2018-06-03T21:59:06.337Z,17.80
2018-06-03T22:01:34.630Z,17.80
2018-06-03T22:04:02.975Z,17.70
2018-06-03T22:06:31.390Z,17.70
2018-06-03T22:08:59.912Z,17.60
2018-06-03T22:11:31.626Z,17.60
2018-06-03T22:13:59.954Z,17.50
2018-06-03T22:16:28.233Z,17.50
2018-06-03T22:18:56.520Z,17.40
2018-06-03T22:21:24.827Z,17.40
2018-06-03T22:23:53.393Z,17.40
2018-06-03T22:26:21.836Z,17.40
2018-06-03T22:28:50.031Z,17.50
2018-06-03T22:31:18.335Z,17.50
2018-06-03T22:33:46.699Z,17.40
2018-06-03T22:36:15.109Z,17.40
2018-06-03T22:38:43.372Z,17.40
2018-06-03T22:41:11.601Z,17.30
2018-06-03T22:43:39.929Z,17.20
2018-06-03T22:46:08.214Z,17.20
2018-06-03T22:48:36.497Z,17.20
2018-06-03T22:51:04.849Z,17.20
2018-06-03T22:53:33.208Z,17.20
2018-06-03T22:56:01.671Z,17.20
2018-06-03T22:58:30.386Z,17.10
2018-06-03T23:00:58.710Z,17.00
2018-06-03T23:03:29.013Z,17.10
2018-06-03T23:05:57.273Z,17.10
2018-06-03T23:08:25.675Z,17.00
2018-06-03T23:10:56.093Z,17.00
2018-06-03T23:13:24.513Z,16.90
2018-06-03T23:15:52.771Z,16.90
2018-06-03T23:18:20.993Z,16.90
2018-06-03T23:20:49.258Z,16.90
2018-06-03T23:23:17.552Z,16.80
2018-06-03T23:25:45.793Z,16.90
2018-06-03T23:28:14.025Z,16.90
2018-06-03T23:30:42.305Z,16.90
2018-06-03T23:33:10.682Z,16.80
2018-06-03T23:35:39.162Z,16.70
2018-06-03T23:38:07.453Z,16.70
2018-06-03T23:40:35.748Z,16.70
2018-06-03T23:43:03.956Z,16.70
2018-06-03T23:45:32.204Z,16.70
2018-06-03T23:48:00.530Z,16.70
2018-06-03T23:50:28.785Z,16.60
2018-06-03T23:52:57.158Z,16.60
2018-06-03T23:55:25.428Z,16.50
2018-06-03T23:57:53.671Z,16.40
